KIMT/IMT METAR and TAF weather

Enter ICAO airport designator
Station Type Date Time Source
KIMT METAR 2019/12/10 19:22 UTC NOAA

KIMT 101922Z AUTO 27007KT 10SM SCT026 OVC060 M12/M18 A2998 RMK AO2 T11171178


Station Type Date Time Source
KIMT Decoded METAR 2019/12/10 19:22 UTC NOAA

IRON MOUNTAIN FORD AIRPORT, MI, United States (KIMT) 45-49N 88-07W 349M
Dec 10, 2019 - 02:22 PM EST / 2019.12.10 1922 UTC
Wind: from the W (270 degrees) at 8 MPH (7 KT):0
Visibility: 10 mile(s):0
Sky conditions: overcast
Temperature: 10.9 F (-11.7 C)
Windchill: 0 F (-18 C):1
Dew Point: -0.0 F (-17.8 C)
Relative Humidity: 60%
Pressure (altimeter): 29.98 in. Hg (1015 hPa)
ob: KIMT 101922Z AUTO 27007KT 10SM SCT026 OVC060 M12/M18 A2998 RMK AO2 T11171178
cycle: 19

Station Type Date Time Source
KIMT TAF UTC NOAA

Error!

Example: see airport list